createdAt,value
2019-06-26T00:03:40.194Z,7.23
2019-06-26T00:08:44.305Z,8.70
2019-06-26T00:13:48.542Z,6.70
2019-06-26T00:18:52.483Z,7.30
2019-06-26T00:23:56.654Z,8.23
2019-06-26T00:29:00.521Z,7.37
2019-06-26T00:34:04.861Z,7.23
2019-06-26T00:39:08.859Z,7.10
2019-06-26T00:44:13.020Z,6.60
2019-06-26T00:49:17.250Z,7.00
2019-06-26T00:54:21.102Z,7.60
2019-06-26T00:59:25.060Z,7.73
2019-06-26T01:04:33.224Z,7.37
2019-06-26T01:09:37.086Z,8.00
2019-06-26T01:14:41.280Z,7.53
2019-06-26T01:19:45.666Z,7.83
2019-06-26T01:24:49.590Z,8.10
2019-06-26T01:29:53.791Z,8.00
2019-06-26T01:34:57.683Z,8.13
2019-06-26T01:40:01.584Z,8.33
2019-06-26T01:45:05.935Z,8.60
2019-06-26T01:50:10.251Z,8.00
2019-06-26T01:55:14.358Z,7.70
2019-06-26T02:00:19.341Z,9.53
2019-06-26T02:05:23.731Z,9.47
2019-06-26T02:10:27.774Z,9.07
2019-06-26T02:15:32.091Z,11.03
2019-06-26T02:20:37.136Z,10.20
2019-06-26T02:25:41.989Z,10.73
2019-06-26T02:30:46.611Z,10.13
2019-06-26T02:35:51.242Z,11.23
2019-06-26T02:40:55.323Z,10.80
2019-06-26T02:45:59.595Z,11.83
2019-06-26T02:51:04.183Z,12.53
2019-06-26T02:56:08.764Z,11.30
2019-06-26T03:01:12.754Z,11.60
2019-06-26T03:06:17.435Z,10.20
2019-06-26T03:11:21.856Z,11.70
2019-06-26T03:16:26.483Z,10.97
2019-06-26T03:21:31.127Z,10.53
2019-06-26T03:26:35.517Z,11.57
2019-06-26T03:31:39.464Z,11.60
2019-06-26T03:36:43.759Z,10.73
2019-06-26T03:41:47.673Z,9.03
2019-06-26T03:46:51.990Z,11.10
2019-06-26T03:51:56.351Z,11.10
2019-06-26T03:57:01.339Z,11.27
2019-06-26T04:02:05.386Z,10.00
2019-06-26T04:07:09.866Z,11.13
2019-06-26T04:12:14.483Z,10.87
2019-06-26T04:17:18.739Z,11.60
2019-06-26T04:22:23.154Z,10.90
2019-06-26T04:27:27.472Z,11.50
2019-06-26T04:32:31.834Z,12.67
2019-06-26T04:37:35.850Z,11.20
2019-06-26T04:42:40.618Z,11.47
2019-06-26T04:47:45.511Z,11.67
2019-06-26T04:52:49.841Z,10.60
2019-06-26T04:57:54.226Z,11.53
2019-06-26T05:02:58.554Z,11.13
2019-06-26T05:08:02.542Z,10.97
2019-06-26T05:13:07.170Z,10.13
2019-06-26T05:18:11.206Z,11.20
2019-06-26T05:23:15.502Z,10.43
2019-06-26T05:28:20.139Z,11.10
2019-06-26T05:33:25.027Z,10.93
2019-06-26T05:38:29.326Z,9.83
2019-06-26T05:43:33.605Z,10.90
2019-06-26T05:48:37.631Z,11.00
2019-06-26T05:53:41.677Z,9.87
2019-06-26T05:58:46.066Z,10.53
2019-06-26T06:03:50.867Z,10.37
2019-06-26T06:08:55.158Z,12.17
2019-06-26T06:13:59.406Z,12.73
2019-06-26T06:19:03.451Z,10.77
2019-06-26T06:24:07.742Z,11.47
2019-06-26T06:29:11.634Z,12.40
2019-06-26T06:34:15.580Z,12.63
2019-06-26T06:39:19.928Z,12.07
2019-06-26T06:44:23.902Z,12.77
2019-06-26T06:49:28.282Z,16.20
2019-06-26T06:54:32.524Z,14.40
2019-06-26T06:59:37.171Z,15.40
2019-06-26T07:04:41.563Z,15.67
2019-06-26T07:09:45.875Z,16.20
2019-06-26T07:14:50.175Z,17.20
2019-06-26T07:19:54.464Z,18.17
2019-06-26T07:24:58.514Z,19.53
2019-06-26T07:30:02.930Z,18.70
2019-06-26T07:35:07.844Z,18.10
2019-06-26T07:40:12.260Z,19.27
2019-06-26T07:45:16.850Z,18.67
2019-06-26T07:50:21.242Z,20.50
2019-06-26T07:55:25.493Z,18.50
2019-06-26T08:00:31.708Z,19.20
2019-06-26T08:05:35.396Z,18.20
2019-06-26T08:10:39.364Z,18.03
2019-06-26T08:15:43.318Z,17.70
2019-06-26T08:21:07.267Z,18.27
2019-06-26T08:25:53.294Z,18.50
2019-06-26T08:30:57.607Z,18.10
2019-06-26T08:36:01.859Z,18.33
2019-06-26T08:41:06.252Z,20.47
2019-06-26T08:46:10.908Z,17.87
2019-06-26T08:51:15.528Z,20.50
2019-06-26T08:56:19.776Z,20.47
2019-06-26T09:01:24.095Z,19.57
2019-06-26T09:06:28.149Z,19.07
2019-06-26T09:11:32.403Z,19.30
2019-06-26T09:16:36.692Z,20.00
2019-06-26T09:21:40.645Z,20.37
2019-06-26T09:26:45.064Z,20.37
2019-06-26T09:31:49.601Z,19.23
2019-06-26T09:36:53.574Z,20.37
2019-06-26T09:41:57.787Z,20.53
2019-06-26T09:47:02.604Z,18.50
2019-06-26T09:52:06.806Z,21.67
2019-06-26T09:57:11.112Z,19.37
2019-06-26T10:02:15.150Z,18.40
2019-06-26T10:07:19.115Z,19.33
2019-06-26T10:12:23.490Z,16.80
2019-06-26T10:17:29.705Z,15.40
2019-06-26T10:22:33.730Z,16.10
2019-06-26T10:27:37.687Z,17.10
2019-06-26T10:32:41.844Z,16.47
2019-06-26T10:37:46.174Z,16.50
2019-06-26T10:42:50.988Z,14.37
2019-06-26T10:47:55.186Z,16.37
2019-06-26T10:53:00.158Z,14.37
2019-06-26T10:58:04.491Z,15.40
2019-06-26T11:03:08.883Z,13.20
2019-06-26T11:08:12.867Z,15.17
2019-06-26T11:13:17.258Z,13.03
2019-06-26T11:18:21.450Z,12.20
2019-06-26T11:23:25.407Z,11.17
2019-06-26T11:28:29.607Z,12.43
2019-06-26T11:33:34.010Z,12.47
2019-06-26T11:38:38.316Z,12.13
2019-06-26T11:43:42.387Z,11.70
2019-06-26T11:48:47.728Z,11.97
2019-06-26T11:53:52.045Z,14.40
2019-06-26T11:58:56.703Z,11.10
2019-06-26T12:04:01.023Z,12.40
2019-06-26T12:09:07.582Z,12.10
2019-06-26T12:14:11.938Z,11.13
2019-06-26T12:19:19.087Z,11.87
2019-06-26T12:24:21.919Z,12.80
2019-06-26T12:29:26.536Z,11.53
2019-06-26T12:34:30.764Z,10.77
2019-06-26T12:39:35.260Z,11.90
2019-06-26T12:44:39.232Z,11.80
2019-06-26T12:49:43.274Z,12.27
2019-06-26T12:54:47.581Z,12.30
2019-06-26T12:59:57.396Z,13.40
2019-06-26T13:04:57.581Z,14.47
2019-06-26T13:10:01.601Z,15.03
2019-06-26T13:15:06.039Z,14.40
2019-06-26T13:20:10.974Z,14.20
2019-06-26T13:25:16.093Z,13.10
2019-06-26T13:30:29.478Z,14.00
2019-06-26T13:35:34.023Z,14.13
2019-06-26T13:40:40.929Z,13.90
2019-06-26T13:45:43.902Z,13.30
2019-06-26T13:50:47.919Z,13.17
2019-06-26T13:55:51.981Z,15.00
2019-06-26T14:00:56.427Z,15.03
2019-06-26T14:06:00.670Z,15.23
2019-06-26T14:11:07.405Z,14.03
2019-06-26T14:16:10.798Z,15.40
2019-06-26T14:21:25.167Z,14.87
2019-06-26T14:26:20.503Z,15.00
2019-06-26T14:31:24.812Z,15.87
2019-06-26T14:36:28.838Z,15.77
2019-06-26T14:41:33.391Z,14.90
2019-06-26T14:46:37.338Z,15.57
2019-06-26T14:51:47.189Z,13.90
2019-06-26T14:56:47.730Z,12.93
2019-06-26T15:01:51.701Z,13.20
2019-06-26T15:06:55.713Z,11.70
2019-06-26T15:12:00.039Z,12.87
2019-06-26T15:17:04.091Z,11.90
2019-06-26T15:22:08.181Z,12.87
2019-06-26T15:27:12.193Z,13.07
2019-06-26T15:32:16.423Z,12.50
2019-06-26T15:37:20.755Z,12.67
2019-06-26T15:42:25.334Z,14.00
2019-06-26T15:47:29.548Z,15.73
2019-06-26T15:52:33.486Z,13.23
2019-06-26T15:57:37.990Z,14.50
2019-06-26T16:02:42.282Z,12.03
2019-06-26T16:07:46.456Z,13.30
2019-06-26T16:12:50.344Z,12.30
2019-06-26T16:18:19.736Z,13.17
2019-06-26T16:23:24.058Z,10.50
2019-06-26T16:28:28.954Z,11.30
2019-06-26T16:33:33.896Z,10.53
2019-06-26T16:38:38.188Z,10.23
2019-06-26T16:43:42.370Z,10.90
2019-06-26T16:48:46.648Z,8.17
2019-06-26T16:53:50.991Z,8.80
2019-06-26T16:58:55.462Z,8.90
2019-06-26T17:03:59.490Z,8.90
2019-06-26T17:09:03.895Z,9.67
2019-06-26T17:14:07.849Z,10.77
2019-06-26T17:19:12.188Z,10.27
2019-06-26T17:24:16.146Z,9.00
2019-06-26T17:29:20.187Z,9.90
2019-06-26T17:34:27.173Z,10.63
2019-06-26T17:39:30.115Z,10.10
2019-06-26T17:44:34.247Z,10.20
2019-06-26T17:49:38.287Z,11.10
2019-06-26T17:54:42.799Z,10.70
2019-06-26T17:59:47.130Z,9.53
2019-06-26T18:04:51.107Z,7.50
2019-06-26T18:09:55.739Z,9.40
2019-06-26T18:15:00.359Z,9.23
2019-06-26T18:20:04.847Z,9.17
2019-06-26T18:25:09.610Z,9.20
2019-06-26T18:30:14.016Z,10.00
2019-06-26T18:35:18.647Z,8.80
2019-06-26T18:40:22.932Z,8.10
2019-06-26T18:45:26.926Z,8.70
2019-06-26T18:50:30.878Z,7.87
2019-06-26T18:55:35.487Z,9.70
2019-06-26T19:00:39.849Z,8.80
2019-06-26T19:05:44.215Z,8.70
2019-06-26T19:10:48.433Z,8.30
2019-06-26T19:15:52.752Z,8.17
2019-06-26T19:20:57.062Z,8.20
2019-06-26T19:26:01.409Z,8.50
2019-06-26T19:31:05.469Z,6.70
2019-06-26T19:36:09.420Z,6.60
2019-06-26T19:41:14.077Z,8.30
2019-06-26T19:46:19.098Z,7.80
2019-06-26T19:51:23.019Z,7.43
2019-06-26T19:56:27.730Z,7.67
2019-06-26T20:01:32.051Z,6.73
2019-06-26T20:06:36.431Z,7.00
2019-06-26T20:11:40.379Z,7.27
2019-06-26T20:16:45.093Z,7.40
2019-06-26T20:21:49.382Z,8.00
2019-06-26T20:26:53.617Z,6.90
2019-06-26T20:31:57.855Z,7.40
2019-06-26T20:37:02.168Z,6.60
2019-06-26T20:42:06.527Z,6.77
2019-06-26T20:47:10.542Z,6.97
2019-06-26T20:52:14.882Z,6.47
2019-06-26T20:57:19.228Z,5.60
2019-06-26T21:02:23.458Z,5.20
2019-06-26T21:07:27.931Z,6.23
2019-06-26T21:12:31.891Z,5.50
2019-06-26T21:17:35.883Z,6.20
2019-06-26T21:22:40.398Z,5.97
2019-06-26T21:27:44.489Z,5.90
2019-06-26T21:32:49.110Z,4.97
2019-06-26T21:37:53.249Z,4.37
2019-06-26T21:42:57.135Z,4.43
2019-06-26T21:48:01.665Z,4.70
2019-06-26T21:53:05.612Z,3.77
2019-06-26T21:58:09.873Z,4.20
2019-06-26T22:03:13.891Z,4.37
2019-06-26T22:08:18.207Z,4.20
2019-06-26T22:13:22.390Z,4.17
2019-06-26T22:18:26.708Z,4.10
2019-06-26T22:23:31.075Z,3.80
2019-06-26T22:28:35.089Z,3.27
2019-06-26T22:33:39.387Z,3.40
2019-06-26T22:38:43.634Z,3.30
2019-06-26T22:43:47.939Z,3.40
2019-06-26T22:48:52.209Z,3.63
2019-06-26T22:53:56.478Z,3.50
2019-06-26T22:59:01.091Z,3.30
2019-06-26T23:04:05.309Z,3.30
2019-06-26T23:09:09.288Z,3.70
2019-06-26T23:14:13.367Z,4.30
2019-06-26T23:19:17.518Z,3.80
2019-06-26T23:24:21.748Z,3.40
2019-06-26T23:29:26.039Z,2.90
2019-06-26T23:34:30.268Z,3.00
2019-06-26T23:39:34.531Z,2.33
2019-06-26T23:44:39.224Z,3.00
2019-06-26T23:49:44.071Z,2.53
2019-06-26T23:54:47.964Z,3.03
2019-06-26T23:59:51.836Z,3.20
